Time;durP1;ratioP1;P1;durP2;ratioP2;P2;SDS_P1;SDS_P2;PMS_P1;PMS_P2;Temp;Humidity;BMP_temperature;BMP_pressure;BME280_temperature;BME280_humidity;BME280_pressure;Samples;Min_cycle;Max_cycle;Signal;HPM_P1;HPM_P2
2021/11/17 02:25:49;;;;;;;17.63;13.98;;;9.90;99.90;;;;;;5075159;28;20215;-66
2021/11/17 02:28:46;;;;;;;23.88;16.38;;;9.80;99.90;;;;;;5074467;28;20213;-66
2021/11/17 02:31:40;;;;;;;30.35;16.63;;;9.80;99.90;;;;;;5065515;28;20236;-68
2021/11/17 02:34:26;;;;;;;19.92;14.80;;;9.70;99.90;;;;;;5072412;28;20303;-65
2021/11/17 02:37:15;;;;;;;18.90;13.43;;;9.70;99.90;;;;;;5074378;28;20685;-66
2021/11/17 02:39:55;;;;;;;17.98;13.43;;;9.70;99.90;;;;;;5074348;28;20228;-66
2021/11/17 02:42:44;;;;;;;19.23;12.30;;;9.70;99.90;;;;;;5075507;28;20223;-66
2021/11/17 02:45:24;;;;;;;17.45;13.35;;;9.70;99.90;;;;;;5074681;28;20248;-66
2021/11/17 02:48:12;;;;;;;18.88;14.10;;;9.60;99.90;;;;;;5072909;28;20678;-66
2021/11/17 02:51:06;;;;;;;16.88;13.88;;;9.60;99.90;;;;;;5065627;28;20658;-66
2021/11/17 02:53:48;;;;;;;19.23;14.70;;;9.60;99.90;;;;;;5071091;28;20808;-66
2021/11/17 02:56:27;;;;;;;22.25;15.63;;;9.50;99.90;;;;;;5071532;28;20224;-66
2021/11/17 02:59:13;;;;;;;78.43;45.05;;;9.50;99.90;;;;;;5073817;28;20989;-67
2021/11/17 03:01:59;;;;;;;31.38;21.73;;;9.60;99.90;;;;;;5065719;28;20220;-66
2021/11/17 03:04:57;;;;;;;19.52;14.73;;;9.60;99.90;;;;;;5074473;28;20234;-66
2021/11/17 03:07:37;;;;;;;20.13;15.85;;;9.60;99.90;;;;;;5074346;28;20298;-66
2021/11/17 03:10:36;;;;;;;16.30;12.90;;;9.60;99.90;;;;;;5073999;28;20227;-66
2021/11/17 03:13:22;;;;;;;27.75;17.65;;;9.60;99.90;;;;;;5064163;28;20232;-66
2021/11/17 03:16:11;;;;;;;16.02;12.27;;;9.60;99.90;;;;;;5077028;28;20227;-66
2021/11/17 03:18:56;;;;;;;17.65;13.98;;;9.70;99.90;;;;;;5073860;28;20224;-66
2021/11/17 03:21:39;;;;;;;18.40;14.25;;;9.70;99.90;;;;;;5073760;28;20224;-66
2021/11/17 03:24:19;;;;;;;15.80;13.05;;;9.70;99.90;;;;;;5073936;28;20215;-66
2021/11/17 03:27:01;;;;;;;17.17;14.27;;;9.60;99.90;;;;;;5073769;28;20269;-66
2021/11/17 03:29:51;;;;;;;14.35;11.45;;;9.60;99.90;;;;;;5074133;28;20247;-66
2021/11/17 03:32:43;;;;;;;11.63;10.23;;;9.70;99.90;;;;;;5073767;28;20224;-66
2021/11/17 03:35:52;;;;;;;11.85;10.50;;;9.60;99.90;;;;;;5073820;28;20600;-66
2021/11/17 03:38:37;;;;;;;11.75;9.48;;;9.70;99.90;;;;;;5060227;28;20646;-66
2021/11/17 03:41:31;;;;;;;9.55;8.55;;;9.60;99.90;;;;;;5061541;28;20239;-66
2021/11/17 03:44:22;;;;;;;8.43;7.57;;;9.70;99.90;;;;;;5073913;28;20251;-66
2021/11/17 03:47:25;;;;;;;8.82;7.15;;;9.60;99.70;;;;;;5073635;28;20713;-66
2021/11/17 03:50:09;;;;;;;7.35;6.65;;;9.60;99.90;;;;;;5054402;28;20254;-66
2021/11/17 03:53:00;;;;;;;8.20;7.22;;;9.50;99.90;;;;;;5072472;28;20636;-66
2021/11/17 03:55:45;;;;;;;7.97;7.15;;;9.50;99.90;;;;;;5073586;28;20231;-66
2021/11/17 03:58:23;;;;;;;9.38;8.32;;;9.50;99.90;;;;;;5059202;28;20224;-66
2021/11/17 04:01:08;;;;;;;10.52;8.65;;;9.50;99.90;;;;;;5073418;28;20968;-66
2021/11/17 04:04:03;;;;;;;11.32;9.35;;;9.40;99.90;;;;;;5066806;28;20227;-66
2021/11/17 04:06:43;;;;;;;16.13;11.73;;;9.40;99.90;;;;;;5068889;28;20625;-66
2021/11/17 04:09:25;;;;;;;11.93;9.52;;;9.40;99.90;;;;;;5072224;28;20231;-66
2021/11/17 04:12:05;;;;;;;13.13;11.52;;;9.40;99.90;;;;;;5064698;28;20224;-66
2021/11/17 04:14:44;;;;;;;12.30;10.50;;;9.40;99.90;;;;;;5084762;28;20943;-66
2021/11/17 04:17:23;;;;;;;13.95;10.80;;;9.40;99.90;;;;;;5073694;28;20566;-66
2021/11/17 04:20:03;;;;;;;11.93;9.95;;;9.40;99.90;;;;;;5072782;28;20232;-67
2021/11/17 04:22:49;;;;;;;11.43;10.00;;;9.40;99.90;;;;;;5072890;28;20226;-66
2021/11/17 04:25:46;;;;;;;10.95;8.20;;;9.50;99.90;;;;;;5073319;28;20251;-66
2021/11/17 04:28:27;;;;;;;13.65;10.90;;;9.40;99.90;;;;;;5062144;28;20224;-66
2021/11/17 04:31:22;;;;;;;7.43;6.63;;;9.40;99.90;;;;;;5072161;28;20219;-66
2021/11/17 04:34:07;;;;;;;10.38;8.57;;;9.40;99.90;;;;;;5073251;28;20230;-66
2021/11/17 04:36:57;;;;;;;8.68;7.80;;;9.40;99.90;;;;;;5070649;28;20216;-66
2021/11/17 04:39:52;;;;;;;13.85;8.57;;;9.40;99.90;;;;;;5072744;28;20236;-66
2021/11/17 04:42:44;;;;;;;16.33;12.05;;;9.40;99.90;;;;;;5072888;28;20228;-65
2021/11/17 04:45:23;;;;;;;8.82;7.47;;;9.50;99.90;;;;;;5072770;28;20220;-66
2021/11/17 04:48:06;;;;;;;10.75;8.60;;;9.50;99.90;;;;;;5073323;28;20231;-65
2021/11/17 04:51:09;;;;;;;9.40;8.30;;;9.50;99.90;;;;;;5072699;28;20216;-65
2021/11/17 04:53:59;;;;;;;9.23;8.32;;;9.50;99.90;;;;;;5072796;28;20211;-65
2021/11/17 04:56:43;;;;;;;11.18;8.80;;;9.40;99.90;;;;;;5072595;28;20250;-66
2021/11/17 04:59:29;;;;;;;11.10;8.90;;;9.40;99.90;;;;;;5072955;28;20238;-66
2021/11/17 05:02:13;;;;;;;10.82;8.65;;;9.40;99.90;;;;;;5072969;28;20220;-67
2021/11/17 05:04:53;;;;;;;9.90;8.65;;;9.40;99.90;;;;;;5073008;28;20231;-66
2021/11/17 05:07:33;;;;;;;8.57;7.20;;;9.50;99.90;;;;;;5072570;28;21006;-66
2021/11/17 05:10:11;;;;;;;8.30;7.55;;;9.40;99.90;;;;;;5072462;28;20684;-67
2021/11/17 05:12:49;;;;;;;8.27;7.00;;;9.50;99.90;;;;;;5072844;28;20220;-65
2021/11/17 05:15:28;;;;;;;9.88;8.52;;;9.50;99.90;;;;;;5072330;28;20232;-65
2021/11/17 05:18:02;;;;;;;9.85;7.80;;;9.50;99.90;;;;;;5072796;28;20275;-66
2021/11/17 05:20:41;;;;;;;9.38;8.30;;;9.50;99.90;;;;;;5072370;28;20227;-66
2021/11/17 05:23:22;;;;;;;13.10;10.02;;;9.40;99.90;;;;;;5072406;28;20681;-65
2021/11/17 05:26:04;;;;;;;11.95;8.68;;;9.40;99.90;;;;;;5072797;28;20220;-65
2021/11/17 05:28:47;;;;;;;14.00;12.27;;;9.50;99.90;;;;;;5072700;28;20576;-66
2021/11/17 05:31:36;;;;;;;11.30;10.15;;;9.40;99.90;;;;;;5072004;28;20246;-66
2021/11/17 05:34:24;;;;;;;11.88;9.73;;;9.40;99.90;;;;;;5072735;28;20224;-66
2021/11/17 05:37:11;;;;;;;11.50;9.52;;;9.40;99.90;;;;;;5072590;28;20224;-66
2021/11/17 05:39:58;;;;;;;8.32;7.53;;;9.40;99.90;;;;;;5072589;28;20674;-66
2021/11/17 05:42:42;;;;;;;18.80;15.55;;;9.40;99.90;;;;;;5073126;28;20220;-66
2021/11/17 05:45:25;;;;;;;12.80;10.90;;;9.40;99.90;;;;;;5076694;28;20677;-66
2021/11/17 05:48:03;;;;;;;11.65;10.38;;;9.40;99.90;;;;;;5076677;28;20231;-65
2021/11/17 05:50:55;;;;;;;16.10;12.00;;;9.40;99.90;;;;;;5075943;28;20752;-65
2021/11/17 05:53:45;;;;;;;15.93;12.32;;;9.40;99.90;;;;;;5076148;28;20852;-65
2021/11/17 05:56:26;;;;;;;10.15;8.90;;;9.40;99.90;;;;;;5076081;28;20236;-66
2021/11/17 05:59:20;;;;;;;9.82;8.85;;;9.50;99.90;;;;;;5076339;28;20224;-66
2021/11/17 06:02:05;;;;;;;10.02;7.72;;;9.50;99.90;;;;;;5076808;28;20223;-66
2021/11/17 06:04:31;;;;;;;9.93;8.32;;;9.50;99.90;;;;;;5076388;28;20223;-66
2021/11/17 06:06:59;;;;;;;11.23;9.30;;;9.50;99.90;;;;;;5076074;28;20232;-66
2021/11/17 06:09:26;;;;;;;12.02;10.70;;;9.50;99.90;;;;;;5075933;28;20232;-66
2021/11/17 06:11:56;;;;;;;11.07;9.55;;;9.50;99.90;;;;;;5075676;28;20230;-66
2021/11/17 06:14:27;;;;;;;14.07;11.10;;;9.50;99.90;;;;;;5076146;28;20228;-66
2021/11/17 06:16:57;;;;;;;10.63;9.38;;;9.50;99.90;;;;;;5075619;28;20312;-66
2021/11/17 06:19:27;;;;;;;11.75;10.32;;;9.50;99.90;;;;;;5075944;28;20223;-66
2021/11/17 06:21:56;;;;;;;11.38;9.60;;;9.50;99.90;;;;;;5075426;28;20247;-66
2021/11/17 06:24:26;;;;;;;12.85;10.45;;;9.40;99.90;;;;;;5075976;28;20220;-66
2021/11/17 06:26:54;;;;;;;12.27;10.45;;;9.40;99.90;;;;;;5075479;28;20289;-67
2021/11/17 06:29:24;;;;;;;15.55;11.95;;;9.40;99.90;;;;;;5075551;28;20227;-66
2021/11/17 06:31:53;;;;;;;14.13;10.98;;;9.40;99.90;;;;;;5074757;28;20697;-65
2021/11/17 06:34:25;;;;;;;14.10;12.13;;;9.30;99.90;;;;;;5075652;28;20224;-67
2021/11/17 06:36:52;;;;;;;10.45;9.10;;;9.30;99.90;;;;;;5075132;28;20228;-67
2021/11/17 06:39:19;;;;;;;11.00;9.70;;;9.30;99.90;;;;;;5075536;28;20231;-65
2021/11/17 06:41:46;;;;;;;10.63;9.07;;;9.30;99.90;;;;;;5075311;28;20223;-66
2021/11/17 06:44:15;;;;;;;12.75;9.60;;;9.30;99.90;;;;;;5075542;28;20616;-66
2021/11/17 06:46:42;;;;;;;13.45;10.75;;;9.30;99.90;;;;;;5074987;28;20231;-66
2021/11/17 06:49:09;;;;;;;12.30;11.10;;;9.30;99.90;;;;;;5075431;28;20223;-66
2021/11/17 06:51:36;;;;;;;15.38;12.82;;;9.30;99.90;;;;;;5074960;28;20224;-66
2021/11/17 06:54:03;;;;;;;12.15;9.48;;;9.30;99.90;;;;;;5074658;28;20690;-66
2021/11/17 06:56:30;;;;;;;14.02;10.90;;;9.30;99.90;;;;;;5075350;28;20227;-66
2021/11/17 06:58:57;;;;;;;15.60;11.32;;;9.30;99.90;;;;;;5074727;28;20220;-66
2021/11/17 07:01:25;;;;;;;12.05;9.80;;;9.30;99.90;;;;;;5075008;28;20239;-66
2021/11/17 07:03:52;;;;;;;18.55;12.98;;;9.30;99.90;;;;;;5074832;28;20243;-66
2021/11/17 07:06:19;;;;;;;16.33;11.35;;;9.30;99.90;;;;;;5074876;28;20273;-66
2021/11/17 07:08:46;;;;;;;15.18;12.23;;;9.30;99.90;;;;;;5074543;28;20212;-66
2021/11/17 07:11:13;;;;;;;14.45;12.25;;;9.40;99.90;;;;;;5075021;28;20310;-66
2021/11/17 07:13:40;;;;;;;17.13;12.60;;;9.40;99.90;;;;;;5074447;28;20235;-65
2021/11/17 07:16:07;;;;;;;29.58;21.40;;;9.40;99.90;;;;;;5074932;28;20681;-67
2021/11/17 07:18:37;;;;;;;14.93;12.63;;;9.40;99.90;;;;;;5074764;28;20239;-66
2021/11/17 07:21:05;;;;;;;14.88;12.43;;;9.40;99.90;;;;;;5074317;28;20258;-65
2021/11/17 07:23:33;;;;;;;23.75;18.02;;;9.50;99.90;;;;;;5074878;28;20227;-65
2021/11/17 07:26:00;;;;;;;17.35;14.52;;;9.50;99.90;;;;;;5074280;28;20230;-65
2021/11/17 07:28:27;;;;;;;25.30;18.35;;;9.50;99.90;;;;;;5074664;28;20223;-65
2021/11/17 07:30:53;;;;;;;15.00;12.63;;;9.40;99.90;;;;;;5074112;28;20224;-66
2021/11/17 07:33:20;;;;;;;16.67;15.05;;;9.40;99.90;;;;;;5074287;28;20228;-66
2021/11/17 07:35:51;;;;;;;18.17;15.18;;;9.50;99.90;;;;;;5074073;28;20293;-66
2021/11/17 07:38:20;;;;;;;16.17;12.30;;;9.50;99.90;;;;;;5074689;28;20263;-65
2021/11/17 07:40:48;;;;;;;15.63;11.43;;;9.50;99.90;;;;;;5073983;28;20550;-66
2021/11/17 07:43:17;;;;;;;14.05;12.00;;;9.50;99.90;;;;;;5074448;28;20694;-65
2021/11/17 07:45:44;;;;;;;11.98;9.80;;;9.50;99.90;;;;;;5074025;28;20227;-66
2021/11/17 07:48:13;;;;;;;13.30;10.85;;;9.50;99.90;;;;;;5074397;28;20561;-65
2021/11/17 07:50:41;;;;;;;15.43;12.77;;;9.40;99.90;;;;;;5073928;28;20231;-65
2021/11/17 07:53:10;;;;;;;15.23;11.25;;;9.50;99.90;;;;;;5074012;28;20869;-65
2021/11/17 07:55:39;;;;;;;15.55;12.30;;;9.40;99.90;;;;;;5074211;28;20281;-66
2021/11/17 07:58:08;;;;;;;14.07;11.60;;;9.40;99.90;;;;;;5073558;28;20246;-65
2021/11/17 08:00:36;;;;;;;13.02;10.80;;;9.40;99.90;;;;;;5074094;28;20236;-66
2021/11/17 08:03:04;;;;;;;14.63;11.75;;;9.50;99.90;;;;;;5073654;28;20223;-67
2021/11/17 08:05:32;;;;;;;17.33;12.90;;;9.50;99.90;;;;;;5072845;28;20227;-66
2021/11/17 08:08:01;;;;;;;14.27;11.98;;;9.50;99.90;;;;;;5073631;28;20243;-67
2021/11/17 08:10:33;;;;;;;15.20;11.57;;;9.50;99.90;;;;;;5073873;28;20711;-67
2021/11/17 08:13:00;;;;;;;13.40;11.57;;;9.40;99.90;;;;;;5073381;28;20224;-65
2021/11/17 08:15:27;;;;;;;16.23;11.55;;;9.50;99.90;;;;;;5073591;28;20220;-66
2021/11/17 08:17:54;;;;;;;14.80;12.02;;;9.50;99.90;;;;;;5073371;28;20230;-66
2021/11/17 08:20:22;;;;;;;13.70;11.85;;;9.50;99.90;;;;;;5073504;28;20223;-66
2021/11/17 08:22:51;;;;;;;15.35;11.35;;;9.50;99.90;;;;;;5073369;28;20231;-66
2021/11/17 08:25:20;;;;;;;12.80;10.25;;;9.50;99.90;;;;;;5073594;28;20243;-66
2021/11/17 08:27:49;;;;;;;13.75;12.02;;;9.50;99.90;;;;;;5073032;28;20589;-66
2021/11/17 08:30:19;;;;;;;15.23;12.27;;;9.50;99.90;;;;;;5073269;28;20243;-66
2021/11/17 08:32:47;;;;;;;15.27;12.35;;;9.50;99.90;;;;;;5072908;28;20231;-66
2021/11/17 08:35:17;;;;;;;14.13;11.15;;;9.50;99.90;;;;;;5073177;28;20247;-66
2021/11/17 08:37:45;;;;;;;16.20;12.88;;;9.50;99.90;;;;;;5073206;28;20765;-66
2021/11/17 08:40:15;;;;;;;13.70;12.20;;;9.50;99.90;;;;;;5072920;28;20251;-66
2021/11/17 08:42:42;;;;;;;12.75;11.00;;;9.50;99.90;;;;;;5073258;28;20228;-66
2021/11/17 08:45:12;;;;;;;15.80;13.38;;;9.50;99.90;;;;;;5072731;28;20220;-66
2021/11/17 08:47:39;;;;;;;12.55;11.25;;;9.50;99.90;;;;;;5073282;28;20216;-66
2021/11/17 08:50:10;;;;;;;14.00;11.13;;;9.50;99.90;;;;;;5072602;28;20228;-66
2021/11/17 08:52:37;;;;;;;11.88;9.43;;;9.60;99.90;;;;;;5072943;28;20674;-67
2021/11/17 08:55:04;;;;;;;18.17;13.40;;;9.50;99.90;;;;;;5072716;28;20223;-67
2021/11/17 08:57:32;;;;;;;13.55;12.10;;;9.50;99.90;;;;;;5072942;28;20220;-67
2021/11/17 09:00:00;;;;;;;16.58;13.35;;;9.50;99.90;;;;;;5072452;28;20223;-66
2021/11/17 09:02:28;;;;;;;19.52;13.88;;;9.50;99.90;;;;;;5073179;28;20220;-66
2021/11/17 09:04:55;;;;;;;19.23;13.65;;;9.50;99.90;;;;;;5072469;28;20228;-67
2021/11/17 09:07:22;;;;;;;16.27;12.27;;;9.50;99.90;;;;;;5072859;28;20220;-67
2021/11/17 09:09:49;;;;;;;19.77;15.82;;;9.40;99.90;;;;;;5072984;28;20228;-66
2021/11/17 09:12:16;;;;;;;17.65;13.45;;;9.50;99.90;;;;;;5072447;28;20227;-66
2021/11/17 09:14:43;;;;;;;18.10;13.10;;;9.40;99.90;;;;;;5072539;28;20261;-66
2021/11/17 09:17:10;;;;;;;18.90;10.88;;;9.40;99.90;;;;;;5072129;28;20228;-66
2021/11/17 09:19:38;;;;;;;19.80;12.98;;;9.40;99.90;;;;;;5072796;28;20596;-66
2021/11/17 09:22:05;;;;;;;15.40;9.55;;;9.40;99.90;;;;;;5072281;28;20228;-65
2021/11/17 09:24:32;;;;;;;19.55;9.80;;;9.40;99.90;;;;;;5072837;28;20220;-66
2021/11/17 09:27:04;;;;;;;13.50;10.20;;;9.50;99.90;;;;;;5072265;28;20228;-67
2021/11/17 09:29:33;;;;;;;16.10;13.02;;;9.50;99.90;;;;;;5072667;28;20220;-66
2021/11/17 09:32:01;;;;;;;13.15;10.07;;;9.40;99.90;;;;;;5072184;28;20239;-66
2021/11/17 09:34:28;;;;;;;12.85;10.35;;;9.30;99.90;;;;;;5072661;28;20650;-66
2021/11/17 09:36:57;;;;;;;13.38;9.40;;;9.30;99.90;;;;;;5072073;28;20224;-66
2021/11/17 09:39:24;;;;;;;11.23;10.10;;;9.20;99.90;;;;;;5072445;28;20235;-66
2021/11/17 09:41:54;;;;;;;13.18;10.77;;;9.20;99.90;;;;;;5072491;28;20224;-66
2021/11/17 09:44:25;;;;;;;15.90;9.98;;;9.20;99.90;;;;;;5072404;28;20216;-66
2021/11/17 09:46:54;;;;;;;14.57;12.18;;;9.10;99.90;;;;;;5072640;28;20255;-66
2021/11/17 09:49:27;;;;;;;15.18;10.80;;;9.10;99.90;;;;;;5072051;28;20789;-66
2021/11/17 09:51:58;;;;;;;12.95;9.82;;;9.00;99.90;;;;;;5062623;28;20229;-66
2021/11/17 09:54:30;;;;;;;15.52;9.82;;;8.90;99.90;;;;;;5052302;28;20666;-66
2021/11/17 09:56:59;;;;;;;16.77;10.32;;;8.90;99.90;;;;;;5052465;28;20566;-66
2021/11/17 09:59:37;;;;;;;11.63;10.05;;;8.90;99.90;;;;;;5051969;28;20685;-66
2021/11/17 10:02:09;;;;;;;13.88;10.25;;;8.90;99.90;;;;;;5052041;28;20559;-66
2021/11/17 10:04:39;;;;;;;11.88;9.60;;;8.90;99.90;;;;;;5051780;28;20232;-65
2021/11/17 10:10:10;;;;;;;12.48;11.18;;;9.00;99.90;;;;;;5051287;28;20243;-65
2021/11/17 10:12:59;;;;;;;16.60;12.15;;;9.00;99.90;;;;;;5050703;28;20897;-65
2021/11/17 10:15:29;;;;;;;14.65;11.65;;;9.00;99.90;;;;;;5050946;28;20231;-65
2021/11/17 10:17:58;;;;;;;13.68;10.07;;;9.00;99.90;;;;;;5051298;28;20240;-65
2021/11/17 10:20:33;;;;;;;14.45;9.73;;;9.00;99.90;;;;;;5051508;28;20583;-65
2021/11/17 10:23:17;;;;;;;12.50;9.90;;;9.10;99.90;;;;;;5052268;28;20565;-65
2021/11/17 10:25:46;;;;;;;10.63;8.45;;;9.10;99.90;;;;;;5051901;28;20768;-65
2021/11/17 10:28:14;;;;;;;10.93;9.80;;;9.10;99.90;;;;;;5051919;28;20228;-65
2021/11/17 10:30:53;;;;;;;13.98;12.13;;;9.00;99.90;;;;;;5054974;28;20667;-65
2021/11/17 10:33:24;;;;;;;16.10;12.57;;;9.00;99.90;;;;;;5055259;28;20229;-65
2021/11/17 10:36:00;;;;;;;15.23;10.38;;;9.00;99.90;;;;;;5055664;28;20224;-65
2021/11/17 10:38:33;;;;;;;14.48;10.60;;;9.00;99.90;;;;;;5055099;28;20220;-66
2021/11/17 10:41:03;;;;;;;11.95;10.48;;;9.00;99.90;;;;;;5055553;28;20563;-66
2021/11/17 10:43:33;;;;;;;11.00;8.90;;;9.00;99.90;;;;;;5062519;28;20235;-66
2021/11/17 10:46:07;;;;;;;13.27;10.10;;;9.10;99.90;;;;;;5055586;28;20220;-66
2021/11/17 10:48:37;;;;;;;10.95;8.40;;;9.10;99.90;;;;;;5054969;28;20224;-64
2021/11/17 10:51:15;;;;;;;10.07;8.98;;;9.10;99.90;;;;;;5059658;28;20223;-66
2021/11/17 10:53:48;;;;;;;14.85;9.45;;;9.10;99.90;;;;;;5074121;28;20224;-65
2021/11/17 10:56:18;;;;;;;11.90;9.80;;;9.20;99.90;;;;;;5075332;28;20554;-66
2021/11/17 10:58:48;;;;;;;10.50;8.70;;;9.20;99.90;;;;;;5074199;28;20661;-65
2021/11/17 11:01:21;;;;;;;10.02;8.35;;;9.30;99.90;;;;;;5075029;28;20553;-66
2021/11/17 11:03:51;;;;;;;10.38;8.07;;;9.40;99.90;;;;;;5074763;28;20257;-66
2021/11/17 11:06:22;;;;;;;11.05;8.95;;;9.40;99.90;;;;;;5075005;28;20224;-66
2021/11/17 11:08:55;;;;;;;12.98;8.55;;;9.40;99.90;;;;;;5066410;28;20229;-66
2021/11/17 11:11:23;;;;;;;8.30;7.43;;;9.50;99.90;;;;;;5054778;28;20221;-66
2021/11/17 11:13:54;;;;;;;9.02;8.10;;;9.40;99.90;;;;;;5056913;28;20793;-66
2021/11/17 11:16:23;;;;;;;11.80;8.40;;;9.40;99.90;;;;;;5075034;28;20305;-66
2021/11/17 11:18:55;;;;;;;12.80;8.63;;;9.40;99.90;;;;;;5074406;28;20227;-65
2021/11/17 11:21:39;;;;;;;9.63;8.60;;;9.40;99.90;;;;;;5074862;28;20234;-66
2021/11/17 11:24:14;;;;;;;11.00;8.63;;;9.50;99.90;;;;;;5074906;28;20227;-67
2021/11/17 11:27:17;;;;;;;10.48;8.93;;;9.50;99.90;;;;;;5074155;28;20227;-66
2021/11/17 11:29:47;;;;;;;11.82;9.75;;;9.50;99.90;;;;;;5075119;28;20658;-66
2021/11/17 11:32:44;;;;;;;9.95;7.40;;;9.50;99.90;;;;;;5074198;28;20676;-66
2021/11/17 11:35:17;;;;;;;15.70;10.57;;;9.50;99.90;;;;;;5074058;28;20651;-66
2021/11/17 11:38:07;;;;;;;12.93;9.93;;;9.60;99.90;;;;;;5073258;28;20227;-66
2021/11/17 11:41:11;;;;;;;15.88;11.30;;;9.60;99.90;;;;;;5054359;28;20713;-66
2021/11/17 11:43:41;;;;;;;10.52;8.95;;;9.60;99.90;;;;;;5053976;28;20228;-68
2021/11/17 11:46:28;;;;;;;13.05;9.50;;;9.50;99.90;;;;;;5054440;28;20358;-66
2021/11/17 11:49:05;;;;;;;12.20;9.23;;;9.50;99.90;;;;;;5053875;28;20224;-65
2021/11/17 11:51:53;;;;;;;14.85;11.38;;;9.60;99.90;;;;;;5062056;28;20595;-66
2021/11/17 11:54:26;;;;;;;14.70;9.57;;;9.60;99.90;;;;;;5074118;28;20295;-66
2021/11/17 11:57:16;;;;;;;12.20;8.75;;;9.60;99.90;;;;;;5073790;28;20242;-66
2021/11/17 11:59:43;;;;;;;13.13;9.13;;;9.70;99.90;;;;;;5073443;28;20224;-66
2021/11/17 12:02:15;;;;;;;12.20;9.25;;;9.80;99.90;;;;;;5074042;28;20227;-66
2021/11/17 12:04:44;;;;;;;10.48;9.38;;;9.80;99.90;;;;;;5061752;28;20747;-66
2021/11/17 12:07:14;;;;;;;15.82;11.90;;;9.90;99.90;;;;;;5054037;28;20663;-66
2021/11/17 12:09:55;;;;;;;17.20;14.27;;;9.90;99.90;;;;;;5053380;28;20229;-66
2021/11/17 12:12:28;;;;;;;15.35;12.35;;;9.90;99.90;;;;;;5053944;28;20628;-66
2021/11/17 12:15:17;;;;;;;13.40;9.88;;;10.00;99.90;;;;;;5053614;28;20244;-66
2021/11/17 12:17:45;;;;;;;13.43;11.10;;;10.00;99.90;;;;;;5053538;28;20603;-66
2021/11/17 12:20:27;;;;;;;11.48;10.05;;;10.00;99.90;;;;;;5053632;28;20236;-66
2021/11/17 12:22:57;;;;;;;14.90;11.25;;;10.00;99.90;;;;;;5053221;28;20225;-66
2021/11/17 12:25:29;;;;;;;14.95;10.82;;;10.10;99.90;;;;;;5053623;28;20217;-66
2021/11/17 12:28:01;;;;;;;15.50;11.93;;;10.10;99.90;;;;;;5053249;28;20231;-66
2021/11/17 12:30:37;;;;;;;17.60;12.60;;;10.00;99.90;;;;;;5053522;28;20633;-66
2021/11/17 12:33:13;;;;;;;15.50;12.43;;;10.10;99.90;;;;;;5052898;28;21009;-66
2021/11/17 12:35:43;;;;;;;11.63;10.02;;;10.10;99.90;;;;;;5052791;28;20693;-66
2021/11/17 12:38:13;;;;;;;11.18;9.05;;;10.00;99.90;;;;;;5053445;28;20223;-66
2021/11/17 12:40:48;;;;;;;11.15;9.63;;;10.10;99.90;;;;;;5052796;28;20225;-66
2021/11/17 12:43:29;;;;;;;11.93;9.77;;;10.10;99.90;;;;;;5053072;28;20228;-66
2021/11/17 12:46:05;;;;;;;11.63;10.43;;;10.10;99.90;;;;;;5052770;28;20228;-66
2021/11/17 12:48:37;;;;;;;13.50;10.07;;;10.10;99.90;;;;;;5053303;28;20224;-66
2021/11/17 12:51:09;;;;;;;13.93;11.30;;;10.20;99.90;;;;;;5057113;28;20729;-66
2021/11/17 12:53:41;;;;;;;9.15;8.15;;;10.20;99.90;;;;;;5072748;28;20235;-66
2021/11/17 12:56:16;;;;;;;10.15;8.43;;;10.20;99.90;;;;;;5072731;28;20226;-66
2021/11/17 12:58:49;;;;;;;11.98;9.45;;;10.20;99.90;;;;;;5073162;28;20227;-66
2021/11/17 13:01:23;;;;;;;11.82;8.90;;;10.10;99.90;;;;;;5072765;28;20995;-66
2021/11/17 13:04:16;;;;;;;12.60;8.93;;;10.20;99.90;;;;;;5072633;28;20220;-66
2021/11/17 13:06:49;;;;;;;13.98;10.35;;;10.20;99.90;;;;;;5072829;28;20221;-66
2021/11/17 13:09:20;;;;;;;12.10;10.82;;;10.20;99.90;;;;;;5072941;28;20231;-66
2021/11/17 13:11:49;;;;;;;15.25;9.93;;;10.20;99.90;;;;;;5071780;28;20301;-67
2021/11/17 13:14:23;;;;;;;15.95;13.50;;;10.30;99.90;;;;;;5056782;28;20220;-66
2021/11/17 13:16:52;;;;;;;10.32;8.90;;;10.30;99.90;;;;;;5052454;28;20217;-66
2021/11/17 13:19:30;;;;;;;14.20;9.23;;;10.20;99.90;;;;;;5052609;28;20220;-66
2021/11/17 13:22:01;;;;;;;12.10;9.13;;;10.30;99.90;;;;;;5052537;28;20240;-67
2021/11/17 13:24:40;;;;;;;12.20;9.52;;;10.30;99.90;;;;;;5052724;28;20247;-67
2021/11/17 13:27:42;;;;;;;13.20;10.60;;;10.30;99.90;;;;;;5052557;28;20733;-65
2021/11/17 13:30:39;;;;;;;11.57;9.13;;;10.30;99.90;;;;;;5020290;28;20247;-64
2021/11/17 13:33:21;;;;;;;13.23;10.32;;;10.30;99.90;;;;;;5051980;28;20225;-65
2021/11/17 13:35:59;;;;;;;9.75;8.70;;;10.30;99.90;;;;;;5052224;28;20229;-66
2021/11/17 13:38:26;;;;;;;10.85;9.60;;;10.40;99.90;;;;;;5052641;28;20220;-65
2021/11/17 13:40:56;;;;;;;11.35;8.65;;;10.40;99.90;;;;;;5051749;28;20220;-66
2021/11/17 13:43:24;;;;;;;10.43;8.63;;;10.40;99.90;;;;;;5052478;28;20220;-66
2021/11/17 13:45:55;;;;;;;11.77;9.93;;;10.50;99.90;;;;;;5052154;28;20216;-66
2021/11/17 13:48:26;;;;;;;11.38;9.35;;;10.40;99.90;;;;;;5052474;28;20233;-65
2021/11/17 13:50:53;;;;;;;18.30;14.48;;;10.40;99.90;;;;;;5054717;28;20224;-66
2021/11/17 13:53:21;;;;;;;17.27;13.25;;;10.40;99.90;;;;;;5061266;28;20231;-67
2021/11/17 13:55:52;;;;;;;13.75;10.93;;;10.40;99.90;;;;;;5072014;28;20689;-67
2021/11/17 13:58:19;;;;;;;10.32;9.20;;;10.40;99.90;;;;;;5060567;28;20235;-66
2021/11/17 14:00:47;;;;;;;13.75;11.15;;;10.50;99.90;;;;;;5051837;28;20621;-67
2021/11/17 14:03:15;;;;;;;10.30;9.10;;;10.50;99.90;;;;;;5052555;28;20228;-67
2021/11/17 14:05:46;;;;;;;12.40;11.02;;;10.40;99.90;;;;;;5055949;28;20621;-67
2021/11/17 14:08:14;;;;;;;11.55;9.77;;;10.50;99.90;;;;;;5055854;28;20982;-67
2021/11/17 14:10:41;;;;;;;13.52;11.45;;;10.40;99.90;;;;;;5056389;28;20659;-67
2021/11/17 14:13:09;;;;;;;18.00;16.10;;;10.40;99.90;;;;;;5055670;28;20232;-66
2021/11/17 14:15:37;;;;;;;13.20;10.93;;;10.40;99.90;;;;;;5072808;28;20219;-66
2021/11/17 14:18:05;;;;;;;12.10;7.85;;;10.30;99.90;;;;;;5075549;28;20239;-66
2021/11/17 14:20:39;;;;;;;9.68;8.60;;;10.20;99.90;;;;;;5075885;28;20693;-66
2021/11/17 14:23:06;;;;;;;12.50;10.95;;;10.10;99.90;;;;;;5075557;28;20219;-66
2021/11/17 14:25:33;;;;;;;21.05;14.27;;;10.10;99.90;;;;;;5075887;28;20224;-67
2021/11/17 14:28:03;;;;;;;12.55;11.15;;;10.10;99.90;;;;;;5074724;28;20226;-66
2021/11/17 14:30:34;;;;;;;9.60;7.55;;;10.00;99.90;;;;;;5075498;28;20307;-65
2021/11/17 14:33:03;;;;;;;14.55;10.60;;;10.00;99.90;;;;;;5075225;28;20224;-65
2021/11/17 14:35:31;;;;;;;11.63;9.10;;;10.00;99.90;;;;;;5075648;28;20224;-65
2021/11/17 14:38:01;;;;;;;11.32;8.80;;;10.00;99.90;;;;;;5074618;28;20220;-65
2021/11/17 14:40:28;;;;;;;10.55;9.40;;;10.10;99.90;;;;;;5075713;28;20682;-66
2021/11/17 14:42:55;;;;;;;10.60;9.52;;;10.10;99.90;;;;;;5074568;28;20323;-65
2021/11/17 14:45:25;;;;;;;12.15;9.48;;;10.10;99.90;;;;;;5075537;28;20235;-66
2021/11/17 14:47:52;;;;;;;10.30;7.88;;;10.20;99.90;;;;;;5075234;28;20220;-66
2021/11/17 14:50:20;;;;;;;8.63;7.72;;;10.30;99.90;;;;;;5075226;28;20573;-66
2021/11/17 14:52:48;;;;;;;9.50;7.85;;;10.30;99.90;;;;;;5064989;28;20220;-66
2021/11/17 14:55:19;;;;;;;8.18;6.82;;;10.30;99.90;;;;;;5074982;28;20224;-65
2021/11/17 14:57:46;;;;;;;11.35;8.98;;;10.40;99.90;;;;;;5075243;28;20216;-65
2021/11/17 15:00:16;;;;;;;25.35;21.88;;;10.40;99.90;;;;;;5074187;28;20247;-64
2021/11/17 15:02:43;;;;;;;10.95;8.05;;;10.40;99.90;;;;;;5075275;28;20216;-66
2021/11/17 15:05:11;;;;;;;17.63;10.95;;;10.50;99.90;;;;;;5074727;28;20224;-66
2021/11/17 15:07:39;;;;;;;12.73;11.13;;;10.40;99.90;;;;;;5073817;28;20227;-73
2021/11/17 15:10:09;;;;;;;14.00;9.63;;;10.40;99.90;;;;;;5054622;28;20698;-67
2021/11/17 15:12:38;;;;;;;14.20;12.57;;;10.40;99.90;;;;;;5055066;28;20229;-66
2021/11/17 15:15:09;;;;;;;13.52;12.13;;;10.40;99.90;;;;;;5054153;28;20707;-67
2021/11/17 15:17:36;;;;;;;18.30;14.57;;;10.40;99.90;;;;;;5054930;28;20224;-66
2021/11/17 15:20:05;;;;;;;12.30;10.15;;;10.30;99.90;;;;;;5054375;28;20252;-67
2021/11/17 15:22:33;;;;;;;10.27;9.00;;;10.40;99.90;;;;;;5054795;28;20213;-66
2021/11/17 15:25:00;;;;;;;8.82;8.02;;;10.40;99.90;;;;;;5054439;28;20221;-66
2021/11/17 15:27:33;;;;;;;9.82;8.43;;;10.30;99.90;;;;;;5054892;28;20232;-66
2021/11/17 15:30:04;;;;;;;9.43;8.30;;;10.40;99.90;;;;;;5054124;28;20243;-66
2021/11/17 15:32:31;;;;;;;13.95;11.20;;;10.30;99.90;;;;;;5054436;28;20678;-67
2021/11/17 15:34:58;;;;;;;16.10;13.07;;;10.30;99.90;;;;;;5054316;28;20239;-66
2021/11/17 15:37:26;;;;;;;20.40;16.15;;;10.20;99.90;;;;;;5054749;28;20220;-66
2021/11/17 15:39:53;;;;;;;13.75;12.10;;;10.20;99.90;;;;;;5054400;28;20311;-61
2021/11/17 15:42:21;;;;;;;9.60;8.60;;;10.20;99.90;;;;;;5057647;28;20269;-68
2021/11/17 15:44:49;;;;;;;9.88;7.30;;;10.20;99.90;;;;;;5074291;28;20244;-66
2021/11/17 15:47:17;;;;;;;8.02;7.05;;;10.20;99.90;;;;;;5073881;28;20219;-83